METAR Data
IDs: Format: Raw Decoded Include TAF

Data at: 1142 UTC 16 Oct 2018

PASO 161124Z AUTO 01003KT 5SM BR FEW002 BKN035 OVC065 07/06 A2924 RMK AO2 RAE06 P0000 T00720061 TSNO
PASO 161053Z AUTO 00000KT 5SM -RA BR SCT041 BKN049 OVC070 07/07 A2923 RMK AO2 RAB43 SLP899 P0000 T00720067 TSNO
PASO 160953Z AUTO 00000KT 6SM BR BKN040 07/06 A2925 RMK AO2 SLP906 T00720061 TSNO
PASO 160919Z AUTO 00000KT 4SM BR SCT002 SCT070 07/06 A2924 RMK AO2 T00720061 TSNO
PASO 160908Z AUTO 00000KT 5SM BR BKN002 BKN070 BKN110 07/06 A2925 RMK AO2 T00720061 TSNO
PASO 160853Z AUTO 00000KT 6SM BR SCT002 BKN070 OVC110 07/06 A2926 RMK AO2 SLP909 60006 T00720061 401170056 53001 TSNO
PASO 160753Z AUTO 00000KT 7SM FEW003 SCT013 OVC070 08/07 A2925 RMK AO2 RAE14 SLP906 P0001 T00780067 TSNO
PASO 160744Z AUTO 00000KT 8SM SCT005 SCT013 OVC070 08/07 A2926 RMK AO2 RAE14 P0001 T00780067 TSNO
PASO 160724Z AUTO 00000KT 8SM BKN006 OVC070 08/07 A2925 RMK AO2 RAE14 P0001 T00780067 TSNO
PASO 160715Z AUTO 01003KT 6SM BR SCT005 OVC070 08/07 A2925 RMK AO2 RAE14 P0001 T00780067 TSNO
PASO 160653Z AUTO 00000KT 5SM -RA BR OVC070 08/07 A2925 RMK AO2 SLP906 P0005 T00780067 TSNO
PASO 160634Z AUTO 00000KT 5SM -RA BR SCT006 OVC070 08/07 A2925 RMK AO2 P0004 T00780067 TSNO
PASO 160553Z AUTO 00000KT 7SM -RA OVC006 08/07 A2926 RMK AO2 SLP909 P0007 60021 T00780067 10100 20078 50010 TSNO
PASO 160453Z AUTO 02005KT 6SM -RA BR BKN006 OVC055 08/07 A2926 RMK AO2 RAB0354 SLP909 P0006 T00830072 TSNO
PASO 160425Z AUTO 00000KT 4SM RA BR BKN006 BKN014 OVC055 09/08 A2925 RMK AO2 RAB0354 P0002 T00890078 TSNO
PASO 160400Z AUTO 01004KT 9SM -RA FEW006 BKN014 OVC050 09/08 A2924 RMK AO2 RAB0354 P0000 T00890078 TSNO
PASO 160353Z AUTO 00000KT 10SM BKN008 OVC014 10/08 A2923 RMK AO2 RAE39 SLP900 P0001 T01000083 TSNO
PASO 160330Z AUTO 09003KT 8SM -RA BKN009 OVC070 09/08 A2924 RMK AO2 P0001 T00940083 TSNO
PASO 160253Z AUTO 33003KT 6SM -RA BR SCT009 BKN048 OVC085 10/09 A2923 RMK AO2 SLP898 P0002 60007 T01000089 56016 TSNO
PASO 160246Z AUTO 00000KT 4SM -RA BR SCT007 BKN041 OVC080 10/09 A2923 RMK AO2 P0002 T01000089 TSNO
PASO 160232Z AUTO 01003KT 3SM -RA BR BKN009 BKN041 OVC070 10/09 A2923 RMK AO2 P0001 T01000089 TSNO
PASO 160226Z AUTO VRB03KT 2 1/2SM -RA BR SCT009 BKN039 OVC055 10/09 A2923 RMK AO2 P0001 T01000089 TSNO
PASO 160219Z AUTO 01003KT 2 1/2SM -RA BR SCT009 BKN015 OVC041 10/09 A2923 RMK AO2 P0001 T01000089 TSNO
PASO 160153Z AUTO 00000KT 4SM -RA BR OVC009 10/09 A2924 RMK AO2 SLP902 P0001 T01000089 TSNO
PASO 160104Z AUTO 00000KT 6SM -RA BR BKN010 BKN034 10/09 A2925 RMK AO2 P0000 T01000089 TSNO
PASO 160053Z AUTO 00000KT 3SM -RA BR SCT010 OVC035 09/08 A2925 RMK AO2 SLP907 P0004 T00940083 TSNO
PASO 160023Z AUTO 00000KT 3SM -RA BR FEW017 OVC033 09/08 A2927 RMK AO2 P0004 T00890078 TSNO
PASO 160016Z AUTO 00000KT 2 1/2SM -RA BR FEW017 BKN034 OVC045 09/08 A2927 RMK AO2 P0004 T00890078 TSNO
PASO 152353Z AUTO 31003KT 1 3/4SM RA BR BKN038 OVC049 09/07 A2928 RMK AO2 PRESFR SLP914 P0012 60015 T00890072 10117 20072 58029 TSNO
PASO 152324Z AUTO 34003KT 2SM RA BR FEW020 OVC038 09/08 A2930 RMK AO2 P0004 T00890078 TSNO
PASO 152253Z AUTO 35005KT 7SM -RA BKN034 OVC044 09/08 A2930 RMK AO2 SLP923 P0000 T00940078 TSNO
PASO 152153Z AUTO 00000KT 8SM -RA BKN039 OVC050 11/10 A2934 RMK SLP935 P0002 T01110100 TSNO VIA AUTODIAL
PASO 152053Z AUTO 03003KT 8SM -RA BKN046 OVC055 10/09 A2936 RMK AO2 RAE1956B37 SLP944 P0000 60001 T01000089 56029 TSNO
PASO 151953Z AUTO 21003KT 10SM -RA OVC045 09/08 A2939 RMK AO2 RAB33 SLP953 P0001 T00890078 TSNO
PASO 151853Z AUTO 00000KT 10SM BKN047 BKN055 08/07 A2942 RMK AO2 RAE42 SLP963 P0000 T00780067 TSNO
PASO 151753Z AUTO 00000KT 4SM -RA BR BKN042 OVC050 07/06 A2945 RMK AO2 RAB33 SLP973 P0001 60001 T00720061 10072 20056 58020 TSNO
PASO 151653Z AUTO 00000KT 10SM SCT049 BKN070 07/06 A2948 RMK AO2 SLP984 T00670056 TSNO
PASO 151553Z AUTO 20003KT 10SM BKN045 OVC120 06/05 A2950 RMK AO2 SLP989 T00610050 TSNO
PASO 151453Z AUTO 00000KT 10SM SCT045 SCT050 BKN110 06/05 A2951 RMK AO2 SLP993 T00610050 58028 TSNO
PASO 151353Z AUTO 21003KT 10SM OVC110 06/05 A2954 RMK AO2 SLP003 T00610050 TSNO
PASO 151253Z AUTO 17003KT 10SM BKN050 BKN070 OVC110 06/04 A2958 RMK AO2 SLP018 T00560044 TSNO
PASO 151153Z AUTO 00000KT 10SM SCT065 OVC110 06/04 A2959 RMK AO2 SLP021 70002 T00560044 10056 20050 58013 TSNO
PASO 151053Z AUTO 00000KT 10SM BKN046 OVC060 06/04 A2960 RMK AO2 SLP025 T00560044 TSNO
PASO 150953Z AUTO 00000KT 10SM SCT047 BKN060 06/04 A2963 RMK AO2 SLP032 T00560044 TSNO
PASO 150853Z AUTO 00000KT 10SM BKN050 06/04 A2963 RMK AO2 SLP034 T00560044 400940028 58008 TSNO
PASO 150753Z AUTO 00000KT 10SM OVC060 06/04 A2964 RMK AO2 SLP037 T00560039 TSNO
PASO 150653Z AUTO 00000KT 10SM FEW046 BKN070 05/04 A2965 RMK AO2 SLP041 T00500039 TSNO
PASO 150553Z AUTO 00000KT 10SM BKN045 BKN075 06/04 A2966 RMK AO2 SLP042 60001 T00560039 10089 20056 58006 TSNO
PASO 150453Z AUTO 00000KT 10SM OVC044 07/05 A2966 RMK AO2 SLP044 T00670050 TSNO
PASO 150353Z AUTO 00000KT 10SM OVC048 07/05 A2967 RMK AO2 RAE0255 SLP047 P0000 T00670050 TSNO
PASO 150253Z AUTO 02007KT 10SM -RA BKN055 BKN070 OVC095 08/05 A2967 RMK AO2 RAE02B34 SLP048 P0000 60001 T00780050 58018 TSNO
PASO 150153Z AUTO 03007KT 10SM -RA SCT050 BKN060 OVC100 08/05 A2969 RMK AO2 RAE06B38 SLP052 P0001 T00830050 TSNO
PASO 150053Z AUTO 00000KT 10SM -RA FEW050 OVC070 08/06 A2971 RMK AO2 RAE24B52 SLP062 P0000 T00830061 TSNO
PASO 142353Z AUTO 02003KT 8SM -RA FEW049 BKN070 OVC080 08/07 A2972 RMK AO2 RAE26B42 SLP066 P0000 60001 T00830072 10094 20039 58016 TSNO